createdAt,value
2022-10-22T08:00:56.281Z,15.60
2022-10-22T08:03:25.081Z,15.90
2022-10-22T08:05:54.338Z,16.40
2022-10-22T08:08:25.915Z,16.60
2022-10-22T08:11:00.339Z,16.90
2022-10-22T08:13:30.796Z,17.10
2022-10-22T08:16:01.879Z,17.50
2022-10-22T08:18:31.360Z,17.60
2022-10-22T08:21:00.158Z,17.70
2022-10-22T08:23:29.160Z,17.50
2022-10-22T08:25:59.920Z,17.40
2022-10-22T08:28:29.999Z,17.30
2022-10-22T08:30:58.736Z,17.00
2022-10-22T08:33:28.858Z,16.90
2022-10-22T08:35:57.763Z,16.80
2022-10-22T08:38:26.432Z,16.80
2022-10-22T08:40:58.679Z,17.00
2022-10-22T08:43:50.169Z,17.20
2022-10-22T08:46:38.389Z,17.40
2022-10-22T08:49:17.498Z,17.60
2022-10-22T08:51:46.599Z,17.80
2022-10-22T08:54:23.968Z,17.90
2022-10-22T08:57:01.160Z,18.20
2022-10-22T08:59:37.678Z,18.20
2022-10-22T09:02:14.001Z,18.40
2022-10-22T09:04:51.359Z,18.50
2022-10-22T09:07:20.801Z,18.60
2022-10-22T09:09:53.138Z,18.60
2022-10-22T09:12:26.061Z,18.60
2022-10-22T09:14:55.291Z,18.50
2022-10-22T09:17:34.038Z,18.40
2022-10-22T09:20:10.779Z,18.50
2022-10-22T09:22:46.404Z,18.40
2022-10-22T09:25:21.914Z,18.50
2022-10-22T09:27:52.678Z,18.70
2022-10-22T09:30:23.967Z,19.30
2022-10-22T09:32:56.118Z,19.90
2022-10-22T09:35:26.199Z,20.40
2022-10-22T09:37:57.679Z,21.00
2022-10-22T09:40:26.380Z,21.60
2022-10-22T09:42:55.014Z,22.10
2022-10-22T09:45:27.085Z,22.30
2022-10-22T09:48:14.238Z,22.70
2022-10-22T09:50:46.878Z,23.00
2022-10-22T09:53:19.973Z,23.00
2022-10-22T09:55:53.084Z,22.60
2022-10-22T09:58:22.432Z,22.80
2022-10-22T10:00:54.959Z,22.90
2022-10-22T10:03:25.584Z,23.10
2022-10-22T10:06:01.547Z,23.20
2022-10-22T10:08:33.739Z,23.50
2022-10-22T10:11:08.039Z,23.70
2022-10-22T10:13:48.239Z,23.40
2022-10-22T10:16:39.030Z,23.50
2022-10-22T10:19:25.967Z,23.70
2022-10-22T10:22:06.672Z,23.70
2022-10-22T10:24:58.958Z,24.10
2022-10-22T10:27:32.477Z,24.10
2022-10-22T10:30:07.399Z,24.10
2022-10-22T10:32:53.170Z,24.10
2022-10-22T10:35:27.959Z,24.30
2022-10-22T10:38:10.496Z,24.10
2022-10-22T10:43:20.478Z,24.90
2022-10-22T10:45:55.714Z,24.50
2022-10-22T10:48:38.359Z,24.60
2022-10-22T10:51:18.390Z,24.70
2022-10-22T10:54:09.151Z,24.80
2022-10-22T10:56:42.711Z,24.70
2022-10-22T10:59:33.713Z,24.70
2022-10-22T11:02:26.310Z,24.60
2022-10-22T11:05:39.751Z,24.70
2022-10-22T11:08:14.973Z,24.90
2022-10-22T11:10:48.601Z,25.20
2022-10-22T11:13:23.838Z,25.30
2022-10-22T11:15:59.151Z,25.60
2022-10-22T11:18:30.310Z,25.70
2022-10-22T11:21:18.838Z,26.20
2022-10-22T11:23:52.458Z,26.00
2022-10-22T11:26:30.562Z,25.80
2022-10-22T11:29:02.952Z,26.40
2022-10-22T11:31:33.030Z,26.50
2022-10-22T11:34:32.032Z,26.70
2022-10-22T11:37:02.199Z,26.80
2022-10-22T11:39:35.998Z,27.40
2022-10-22T11:42:10.681Z,27.40
2022-10-22T11:47:22.281Z,27.40
2022-10-22T11:49:59.688Z,28.50
2022-10-22T11:52:41.598Z,28.50
2022-10-22T11:55:36.046Z,28.60
2022-10-22T11:58:32.131Z,28.90
2022-10-22T12:01:22.754Z,28.60
2022-10-22T12:03:53.030Z,28.20
2022-10-22T12:06:24.510Z,28.80
2022-10-22T12:09:00.153Z,29.20
2022-10-22T12:11:36.460Z,29.10
2022-10-22T12:14:21.800Z,29.50
2022-10-22T12:16:56.854Z,28.90
2022-10-22T12:19:31.260Z,29.20
2022-10-22T12:22:03.473Z,29.00
2022-10-22T12:24:35.548Z,28.60
2022-10-22T12:27:04.439Z,28.60
2022-10-22T12:29:34.953Z,28.90
2022-10-22T12:32:06.030Z,29.00
2022-10-22T12:34:34.723Z,28.50
2022-10-22T12:37:07.236Z,28.30
2022-10-22T12:39:35.999Z,28.10
2022-10-22T12:42:07.550Z,28.10
2022-10-22T12:44:51.360Z,27.70
2022-10-22T12:47:20.453Z,27.20
2022-10-22T12:49:51.803Z,27.20
2022-10-22T12:52:22.710Z,27.60
2022-10-22T12:54:54.995Z,27.60
2022-10-22T12:57:24.898Z,28.00
2022-10-22T12:59:55.153Z,28.80
2022-10-22T13:02:25.969Z,28.40
2022-10-22T13:05:27.447Z,28.40
2022-10-22T13:08:04.321Z,28.80
2022-10-22T13:10:36.033Z,29.10
2022-10-22T13:13:07.030Z,29.00
2022-10-22T13:15:40.249Z,28.70
2022-10-22T13:18:18.759Z,28.70
2022-10-22T13:20:56.207Z,28.60
2022-10-22T13:23:27.018Z,28.60
2022-10-22T13:26:04.914Z,28.80
2022-10-22T13:28:34.279Z,28.60
2022-10-22T13:31:11.605Z,28.60
2022-10-22T13:33:42.594Z,28.80
2022-10-22T13:36:16.078Z,28.10
2022-10-22T13:38:45.678Z,28.10
2022-10-22T13:41:22.113Z,27.60
2022-10-22T13:43:51.431Z,27.60
2022-10-22T13:46:22.763Z,27.60
2022-10-22T13:48:53.679Z,27.30
2022-10-22T13:51:24.159Z,26.40
2022-10-22T13:53:54.799Z,26.10
2022-10-22T13:56:24.112Z,26.20
2022-10-22T13:58:52.967Z,26.00
2022-10-22T14:01:26.638Z,26.00
2022-10-22T14:03:58.158Z,25.30
2022-10-22T14:06:29.238Z,25.00
2022-10-22T14:09:00.586Z,24.80
2022-10-22T14:11:31.390Z,24.70
2022-10-22T14:14:00.567Z,25.00
2022-10-22T14:16:32.600Z,25.30
